Philip, SD (57567)

5:20 AM MDT on September 01, 2015 (GMT -0600)
Philip | | Change Station
CLOSE
Current Station
Airport
Location: Philip,
Elevation: 2208 ft
Nearby Weather Stations

Elev 2208 ft 44.05 °N, 101.60 °W | Updated 25 minutes ago

Partly Cloudy
Partly Cloudy
59 °F
Feels Like 59 °F
N
4
Wind Variable Wind from East

Today
High -- | Low -- °F
--% Chance of Precip.
Yesterday
High -- | Low -- °F
Precip. -- in
6:09 AM 7:22 PM
Waning Gibbous, 89% visible
Pressure 29.82 in
Visibility 8.0 miles
Clouds Clear
Dew Point 58 °F
Humidity 96%
Rainfall 0.00 in
Snow Depth Not available.
UV 0 out of 12
Pollen 10.00 out of 12
Air Quality Not available.
Flu Activity Not available.
METAR KPHP 011055Z AUTO 10003KT 8SM CLR 15/14 A2986 RMK AO2 SLP096 T01500144
Pressure 29.82 in
Visibility 8.0 miles
Clouds Clear
Dew Point 58 °F
Humidity 96%
Rainfall 0.00 in
Snow Depth Not available.
UV 0 out of 12
Pollen 10.00 out of 12
Air Quality Not available.
Flu Activity Not available.
METAR KPHP 011055Z AUTO 10003KT 8SM CLR 15/14 A2986 RMK AO2 SLP096 T01500144

10-Day Weather Forecast

×

Almanac

Astronomy

Sep. 01, 2015 Rise Set
Actual Time
Civil Twilight
Nautical Twilight
Astronomical Twilight
Moon
Length of Visible Light
Length of Day
Tomorrow will be .
, % of the Moon is Illuminated

Today's Extremes

State Highs State Lows

Community

WunderPhotos

Upload Photos

1,851,501 photos uploaded!

WunderBlogs® & News

Nearby

Air Quality

  Air Quality AQ Index Pollutant
Not available.

Snow Depth

Station Depth Elevation

Earthquake Activity

City Distance Mag. Time & Date
Minimum magnitude displayed is 2.5.

Coastal Water Temperatures

Place Temperature

Stations

Nearby Weather Stations

Station Location Temp. Windchill Dew Point Humidity Wind Precip. Elev Updated Type